sensor_id;sensor_type;location;lat;lon;timestamp;pressure;altitude;pressure_sealevel;temperature;humidity
63399;BME280;49533;-34.520;150.798;2023-11-21T00:02:22;100983.94;;;22.94;61.57
63399;BME280;49533;-34.520;150.798;2023-11-21T00:04:50;100971.59;;;22.88;61.60
63399;BME280;49533;-34.520;150.798;2023-11-21T00:07:21;100974.38;;;22.88;61.59
63399;BME280;49533;-34.520;150.798;2023-11-21T00:09:49;100972.09;;;22.97;61.76
63399;BME280;49533;-34.520;150.798;2023-11-21T00:12:16;100932.66;;;22.74;61.81
63399;BME280;49533;-34.520;150.798;2023-11-21T00:14:46;100952.59;;;22.90;61.91
63399;BME280;49533;-34.520;150.798;2023-11-21T00:17:14;100964.22;;;23.03;62.02
63399;BME280;49533;-34.520;150.798;2023-11-21T00:19:43;100956.28;;;22.98;61.99
63399;BME280;49533;-34.520;150.798;2023-11-21T00:22:21;100910.94;;;22.76;62.12
63399;BME280;49533;-34.520;150.798;2023-11-21T00:24:48;100924.88;;;22.87;61.79
63399;BME280;49533;-34.520;150.798;2023-11-21T00:27:16;100957.25;;;23.16;61.70
63399;BME280;49533;-34.520;150.798;2023-11-21T00:29:43;100925.00;;;22.97;61.73
63399;BME280;49533;-34.520;150.798;2023-11-21T00:32:10;100935.81;;;23.10;61.72
63399;BME280;49533;-34.520;150.798;2023-11-21T00:34:37;100880.91;;;22.85;61.82
63399;BME280;49533;-34.520;150.798;2023-11-21T00:37:04;100918.38;;;23.09;61.49
63399;BME280;49533;-34.520;150.798;2023-11-21T00:39:31;100895.31;;;22.98;61.41
63399;BME280;49533;-34.520;150.798;2023-11-21T00:42:10;100944.28;;;23.31;61.67
63399;BME280;49533;-34.520;150.798;2023-11-21T00:44:40;100940.34;;;23.32;61.47
63399;BME280;49533;-34.520;150.798;2023-11-21T00:47:08;100901.31;;;23.04;61.42
63399;BME280;49533;-34.520;150.798;2023-11-21T00:49:35;100931.69;;;23.37;61.58
63399;BME280;49533;-34.520;150.798;2023-11-21T00:52:02;100885.97;;;23.17;61.56
63399;BME280;49533;-34.520;150.798;2023-11-21T00:54:30;100928.91;;;23.41;61.73
63399;BME280;49533;-34.520;150.798;2023-11-21T00:56:58;100897.13;;;23.28;61.78
63399;BME280;49533;-34.520;150.798;2023-11-21T00:59:28;100896.34;;;23.27;61.61
63399;BME280;49533;-34.520;150.798;2023-11-21T01:01:56;100872.97;;;23.25;61.19
63399;BME280;49533;-34.520;150.798;2023-11-21T01:04:26;100914.75;;;23.53;62.17
63399;BME280;49533;-34.520;150.798;2023-11-21T01:06:54;100860.44;;;23.45;60.70
63399;BME280;49533;-34.520;150.798;2023-11-21T01:09:21;100856.91;;;23.55;60.15
63399;BME280;49533;-34.520;150.798;2023-11-21T01:11:48;100886.44;;;23.89;60.03
63399;BME280;49533;-34.520;150.798;2023-11-21T01:14:15;100828.81;;;23.60;59.99
63399;BME280;49533;-34.520;150.798;2023-11-21T01:16:44;100777.56;;;23.36;59.79
63399;BME280;49533;-34.520;150.798;2023-11-21T01:19:22;100874.22;;;24.04;59.64
63399;BME280;49533;-34.520;150.798;2023-11-21T01:21:55;100894.47;;;24.15;60.00
63399;BME280;49533;-34.520;150.798;2023-11-21T01:24:24;100889.38;;;24.24;59.35
63399;BME280;49533;-34.520;150.798;2023-11-21T01:26:52;100866.75;;;24.19;58.77
63399;BME280;49533;-34.520;150.798;2023-11-21T01:29:19;100801.56;;;23.77;58.33
63399;BME280;49533;-34.520;150.798;2023-11-21T01:31:46;100883.06;;;24.42;58.50
63399;BME280;49533;-34.520;150.798;2023-11-21T01:34:14;100874.34;;;24.43;58.49
63399;BME280;49533;-34.520;150.798;2023-11-21T01:36:41;100796.06;;;23.91;58.64
63399;BME280;49533;-34.520;150.798;2023-11-21T01:39:08;100830.63;;;24.15;58.65
63399;BME280;49533;-34.520;150.798;2023-11-21T01:41:39;100874.75;;;24.42;58.05
63399;BME280;49533;-34.520;150.798;2023-11-21T01:44:06;100872.31;;;24.29;58.28
63399;BME280;49533;-34.520;150.798;2023-11-21T01:46:39;100835.81;;;24.27;58.19
63399;BME280;49533;-34.520;150.798;2023-11-21T01:49:08;100875.59;;;24.64;57.82
63399;BME280;49533;-34.520;150.798;2023-11-21T01:51:47;100868.84;;;24.61;58.48
63399;BME280;49533;-34.520;150.798;2023-11-21T01:54:32;100864.84;;;24.51;58.71
63399;BME280;49533;-34.520;150.798;2023-11-21T01:57:13;100809.22;;;24.08;58.75
63399;BME280;49533;-34.520;150.798;2023-11-21T02:00:09;100864.41;;;24.39;58.95
63399;BME280;49533;-34.520;150.798;2023-11-21T02:03:20;100821.50;;;24.07;59.44
63399;BME280;49533;-34.520;150.798;2023-11-21T02:09:29;100866.78;;;24.37;59.58
63399;BME280;49533;-34.520;150.798;2023-11-21T02:12:26;100854.50;;;24.38;59.51
63399;BME280;49533;-34.520;150.798;2023-11-21T02:15:02;100857.66;;;24.36;59.84
63399;BME280;49533;-34.520;150.798;2023-11-21T02:20:43;100825.06;;;24.15;59.63
63399;BME280;49533;-34.520;150.798;2023-11-21T02:23:47;100853.69;;;24.37;59.74
63399;BME280;49533;-34.520;150.798;2023-11-21T02:26:35;100853.28;;;24.39;59.29
63399;BME280;49533;-34.520;150.798;2023-11-21T02:29:22;100847.34;;;24.40;59.69
63399;BME280;49533;-34.520;150.798;2023-11-21T02:32:04;100810.03;;;24.16;59.55
63399;BME280;49533;-34.520;150.798;2023-11-21T02:34:37;100860.44;;;24.43;60.00
63399;BME280;49533;-34.520;150.798;2023-11-21T02:40:13;100788.97;;;24.08;59.67
63399;BME280;49533;-34.520;150.798;2023-11-21T02:42:52;100846.97;;;24.42;59.50
63399;BME280;49533;-34.520;150.798;2023-11-21T02:45:45;100858.06;;;24.38;59.38
63399;BME280;49533;-34.520;150.798;2023-11-21T02:48:16;100844.56;;;24.40;59.51
63399;BME280;49533;-34.520;150.798;2023-11-21T02:51:22;100856.47;;;24.41;59.68
63399;BME280;49533;-34.520;150.798;2023-11-21T02:54:09;100843.78;;;24.40;59.61
63399;BME280;49533;-34.520;150.798;2023-11-21T02:56:39;100845.78;;;24.43;59.92
63399;BME280;49533;-34.520;150.798;2023-11-21T02:59:29;100837.41;;;24.36;60.28
63399;BME280;49533;-34.520;150.798;2023-11-21T03:02:11;100815.97;;;24.18;60.48
63399;BME280;49533;-34.520;150.798;2023-11-21T03:05:10;100798.94;;;24.16;60.57
63399;BME280;49533;-34.520;150.798;2023-11-21T03:11:15;100847.41;;;24.51;60.93
63399;BME280;49533;-34.520;150.798;2023-11-21T03:14:13;100833.50;;;24.51;60.36
63399;BME280;49533;-34.520;150.798;2023-11-21T03:16:48;100814.00;;;24.33;60.66
63399;BME280;49533;-34.520;150.798;2023-11-21T03:19:56;100825.19;;;24.51;61.00
63399;BME280;49533;-34.520;150.798;2023-11-21T03:23:00;100813.25;;;24.40;60.53
63399;BME280;49533;-34.520;150.798;2023-11-21T03:25:47;100826.75;;;24.59;60.43
63399;BME280;49533;-34.520;150.798;2023-11-21T03:28:37;100831.94;;;24.57;60.37
63399;BME280;49533;-34.520;150.798;2023-11-21T03:31:08;100808.09;;;24.42;60.17
63399;BME280;49533;-34.520;150.798;2023-11-21T03:34:04;100824.41;;;24.58;60.28
63399;BME280;49533;-34.520;150.798;2023-11-21T03:36:45;100800.13;;;24.44;60.25
63399;BME280;49533;-34.520;150.798;2023-11-21T03:39:48;100810.50;;;24.54;60.25
63399;BME280;49533;-34.520;150.798;2023-11-21T03:42:53;100781.91;;;24.39;59.91
63399;BME280;49533;-34.520;150.798;2023-11-21T03:45:47;100810.50;;;24.61;59.30
63399;BME280;49533;-34.520;150.798;2023-11-21T03:48:36;100777.91;;;24.29;59.10
63399;BME280;49533;-34.520;150.798;2023-11-21T03:51:25;100747.34;;;24.04;59.88
63399;BME280;49533;-34.520;150.798;2023-11-21T03:57:20;100796.56;;;24.33;59.55
63399;BME280;49533;-34.520;150.798;2023-11-21T03:59:54;100781.06;;;24.17;59.27
63399;BME280;49533;-34.520;150.798;2023-11-21T04:02:27;100758.81;;;23.92;59.81
63399;BME280;49533;-34.520;150.798;2023-11-21T04:05:01;100755.25;;;23.99;60.02
63399;BME280;49533;-34.520;150.798;2023-11-21T04:07:40;100788.59;;;24.13;59.20
63399;BME280;49533;-34.520;150.798;2023-11-21T04:10:21;100787.78;;;24.13;59.58
63399;BME280;49533;-34.520;150.798;2023-11-21T04:13:00;100744.94;;;23.89;60.02
63399;BME280;49533;-34.520;150.798;2023-11-21T04:15:32;100736.19;;;23.86;60.03
63399;BME280;49533;-34.520;150.798;2023-11-21T04:18:16;100706.78;;;23.64;59.97
63399;BME280;49533;-34.520;150.798;2023-11-21T04:21:28;100746.91;;;23.95;59.64
63399;BME280;49533;-34.520;150.798;2023-11-21T04:26:54;100760.44;;;24.04;59.79
63399;BME280;49533;-34.520;150.798;2023-11-21T04:29:21;100748.94;;;24.09;60.06
63399;BME280;49533;-34.520;150.798;2023-11-21T04:31:49;100746.53;;;23.97;60.08
63399;BME280;49533;-34.520;150.798;2023-11-21T04:34:16;100754.84;;;24.00;59.99
63399;BME280;49533;-34.520;150.798;2023-11-21T04:36:43;100757.25;;;23.98;60.34
63399;BME280;49533;-34.520;150.798;2023-11-21T04:39:10;100761.19;;;23.97;60.46
63399;BME280;49533;-34.520;150.798;2023-11-21T04:41:40;100744.97;;;23.96;60.91
63399;BME280;49533;-34.520;150.798;2023-11-21T04:44:08;100730.66;;;23.97;60.16
63399;BME280;49533;-34.520;150.798;2023-11-21T04:46:37;100731.88;;;24.00;59.94
63399;BME280;49533;-34.520;150.798;2023-11-21T04:49:05;100711.63;;;23.92;59.90
63399;BME280;49533;-34.520;150.798;2023-11-21T04:51:32;100721.59;;;24.11;59.69
63399;BME280;49533;-34.520;150.798;2023-11-21T04:54:00;100706.91;;;24.03;58.66
63399;BME280;49533;-34.520;150.798;2023-11-21T04:56:29;100676.34;;;23.78;58.66
63399;BME280;49533;-34.520;150.798;2023-11-21T04:58:57;100716.81;;;24.12;58.82
63399;BME280;49533;-34.520;150.798;2023-11-21T05:01:24;100672.38;;;23.86;58.68
63399;BME280;49533;-34.520;150.798;2023-11-21T05:03:52;100712.06;;;24.08;58.62
63399;BME280;49533;-34.520;150.798;2023-11-21T05:06:19;100702.53;;;23.92;58.64
63399;BME280;49533;-34.520;150.798;2023-11-21T05:08:49;100709.66;;;23.96;58.52
63399;BME280;49533;-34.520;150.798;2023-11-21T05:11:28;100637.44;;;23.60;58.36
63399;BME280;49533;-34.520;150.798;2023-11-21T05:13:55;100633.06;;;23.59;58.12
63399;BME280;49533;-34.520;150.798;2023-11-21T05:16:26;100700.16;;;24.08;58.34
63399;BME280;49533;-34.520;150.798;2023-11-21T05:18:56;100691.44;;;24.17;58.49
63399;BME280;49533;-34.520;150.798;2023-11-21T05:21:27;100681.91;;;24.11;58.61
63399;BME280;49533;-34.520;150.798;2023-11-21T05:24:05;100616.88;;;23.79;58.26
63399;BME280;49533;-34.520;150.798;2023-11-21T05:26:34;100610.56;;;23.75;58.20
63399;BME280;49533;-34.520;150.798;2023-11-21T05:32:01;100654.19;;;24.03;58.52
63399;BME280;49533;-34.520;150.798;2023-11-21T05:34:43;100675.59;;;24.14;58.78
63399;BME280;49533;-34.520;150.798;2023-11-21T05:37:29;100669.22;;;24.09;58.83
63399;BME280;49533;-34.520;150.798;2023-11-21T05:40:18;100670.41;;;24.05;58.96
63399;BME280;49533;-34.520;150.798;2023-11-21T05:43:10;100662.09;;;24.01;59.54
63399;BME280;49533;-34.520;150.798;2023-11-21T05:45:41;100585.91;;;23.49;59.63
63399;BME280;49533;-34.520;150.798;2023-11-21T05:48:26;100666.03;;;24.00;59.46
63399;BME280;49533;-34.520;150.798;2023-11-21T05:50:59;100569.66;;;23.40;59.35
63399;BME280;49533;-34.520;150.798;2023-11-21T05:53:34;100600.59;;;23.67;58.79
63399;BME280;49533;-34.520;150.798;2023-11-21T05:56:10;100662.13;;;24.08;58.74
63399;BME280;49533;-34.520;150.798;2023-11-21T05:58:38;100653.38;;;24.10;58.62
63399;BME280;49533;-34.520;150.798;2023-11-21T06:01:22;100614.53;;;23.96;58.29
63399;BME280;49533;-34.520;150.798;2023-11-21T06:04:10;100626.44;;;24.03;58.32
63399;BME280;49533;-34.520;150.798;2023-11-21T06:06:41;100571.72;;;23.75;58.66
63399;BME280;49533;-34.520;150.798;2023-11-21T06:09:30;100632.75;;;24.18;58.20
63399;BME280;49533;-34.520;150.798;2023-11-21T06:12:07;100621.66;;;24.22;58.14
63399;BME280;49533;-34.520;150.798;2023-11-21T06:14:41;100636.72;;;24.35;57.92
63399;BME280;49533;-34.520;150.798;2023-11-21T06:20:18;100631.94;;;24.39;57.98
63399;BME280;49533;-34.520;150.798;2023-11-21T06:23:13;100631.94;;;24.39;58.48
63399;BME280;49533;-34.520;150.798;2023-11-21T06:25:46;100617.66;;;24.37;58.38
63399;BME280;49533;-34.520;150.798;2023-11-21T06:28:23;100621.25;;;24.52;58.08
63399;BME280;49533;-34.520;150.798;2023-11-21T06:30:55;100596.25;;;24.45;58.30
63399;BME280;49533;-34.520;150.798;2023-11-21T06:33:43;100619.19;;;24.67;57.96
63399;BME280;49533;-34.520;150.798;2023-11-21T06:36:34;100536.41;;;24.12;57.86
63399;BME280;49533;-34.520;150.798;2023-11-21T06:39:02;100631.09;;;24.74;57.98
63399;BME280;49533;-34.520;150.798;2023-11-21T06:41:35;100633.88;;;24.78;58.27
63399;BME280;49533;-34.520;150.798;2023-11-21T06:44:05;100635.44;;;24.79;58.01
63399;BME280;49533;-34.520;150.798;2023-11-21T06:46:32;100606.94;;;24.57;57.83
63399;BME280;49533;-34.520;150.798;2023-11-21T06:48:59;100489.69;;;23.78;58.16
63399;BME280;49533;-34.520;150.798;2023-11-21T06:51:26;100555.78;;;24.40;58.24
63399;BME280;49533;-34.520;150.798;2023-11-21T06:53:53;100476.97;;;23.87;57.55
63399;BME280;49533;-34.520;150.798;2023-11-21T06:56:20;100490.03;;;23.94;58.10
63399;BME280;49533;-34.520;150.798;2023-11-21T06:58:48;100643.31;;;24.95;57.78
63399;BME280;49533;-34.520;150.798;2023-11-21T07:01:15;100619.56;;;24.80;57.68
63399;BME280;49533;-34.520;150.798;2023-11-21T07:03:42;100595.44;;;24.55;57.40
63399;BME280;49533;-34.520;150.798;2023-11-21T07:06:09;100569.66;;;24.40;57.29
63399;BME280;49533;-34.520;150.798;2023-11-21T07:08:38;100594.25;;;24.49;57.57
63399;BME280;49533;-34.520;150.798;2023-11-21T07:11:08;100579.19;;;24.50;57.18
63399;BME280;49533;-34.520;150.798;2023-11-21T07:13:35;100650.09;;;24.87;57.21
63399;BME280;49533;-34.520;150.798;2023-11-21T07:16:02;100628.72;;;24.80;57.61
63399;BME280;49533;-34.520;150.798;2023-11-21T07:18:29;100580.38;;;24.38;57.29
63399;BME280;49533;-34.520;150.798;2023-11-21T07:20:56;100585.16;;;24.45;57.65
63399;BME280;49533;-34.520;150.798;2023-11-21T07:23:25;100549.88;;;24.13;57.25
63399;BME280;49533;-34.520;150.798;2023-11-21T07:25:52;100633.50;;;24.65;57.17
63399;BME280;49533;-34.520;150.798;2023-11-21T07:28:19;100601.00;;;24.44;57.21
63399;BME280;49533;-34.520;150.798;2023-11-21T07:30:46;100650.53;;;24.74;57.15
63399;BME280;49533;-34.520;150.798;2023-11-21T07:33:13;100694.94;;;25.00;56.94
63399;BME280;49533;-34.520;150.798;2023-11-21T07:35:40;100698.13;;;24.98;57.33
63399;BME280;49533;-34.520;150.798;2023-11-21T07:38:07;100693.00;;;24.86;56.90
63399;BME280;49533;-34.520;150.798;2023-11-21T07:40:35;100572.47;;;24.08;56.72
63399;BME280;49533;-34.520;150.798;2023-11-21T07:43:02;100702.16;;;24.83;56.44
63399;BME280;49533;-34.520;150.798;2023-11-21T07:45:29;100696.97;;;24.74;56.50
63399;BME280;49533;-34.520;150.798;2023-11-21T07:47:56;100753.28;;;25.10;56.58
63399;BME280;49533;-34.520;150.798;2023-11-21T07:50:23;100757.25;;;25.09;57.04
63399;BME280;49533;-34.520;150.798;2023-11-21T07:52:50;100764.41;;;25.10;56.64
63399;BME280;49533;-34.520;150.798;2023-11-21T07:55:18;100717.63;;;24.80;56.47
63399;BME280;49533;-34.520;150.798;2023-11-21T07:57:45;100750.94;;;24.94;56.95
63399;BME280;49533;-34.520;150.798;2023-11-21T08:00:12;100771.16;;;25.09;56.70
63399;BME280;49533;-34.520;150.798;2023-11-21T08:02:41;100703.75;;;24.62;56.45
63399;BME280;49533;-34.520;150.798;2023-11-21T08:05:09;100729.94;;;24.76;56.56
63399;BME280;49533;-34.520;150.798;2023-11-21T08:07:37;100785.06;;;25.09;56.79
63399;BME280;49533;-34.520;150.798;2023-11-21T08:10:04;100786.28;;;25.08;56.34
63399;BME280;49533;-34.520;150.798;2023-11-21T08:12:32;100740.25;;;24.75;56.15
63399;BME280;49533;-34.520;150.798;2023-11-21T08:14:59;100762.47;;;24.86;56.62
63399;BME280;49533;-34.520;150.798;2023-11-21T08:17:29;100808.88;;;25.10;56.26
63399;BME280;49533;-34.520;150.798;2023-11-21T08:19:59;100796.97;;;25.03;56.24
63399;BME280;49533;-34.520;150.798;2023-11-21T08:22:26;100816.03;;;25.11;56.17
63399;BME280;49533;-34.520;150.798;2023-11-21T08:24:53;100772.00;;;24.81;56.02
63399;BME280;49533;-34.520;150.798;2023-11-21T08:27:22;100764.84;;;24.69;56.27
63399;BME280;49533;-34.520;150.798;2023-11-21T08:29:49;100798.59;;;24.93;56.33
63399;BME280;49533;-34.520;150.798;2023-11-21T08:32:17;100798.19;;;24.94;56.30
63399;BME280;49533;-34.520;150.798;2023-11-21T08:34:44;100760.50;;;24.68;56.39
63399;BME280;49533;-34.520;150.798;2023-11-21T08:37:14;100820.81;;;25.07;56.26
63399;BME280;49533;-34.520;150.798;2023-11-21T08:39:41;100767.63;;;24.69;55.99
63399;BME280;49533;-34.520;150.798;2023-11-21T08:42:08;100785.09;;;24.84;56.13
63399;BME280;49533;-34.520;150.798;2023-11-21T08:44:35;100789.06;;;24.80;56.18
63399;BME280;49533;-34.520;150.798;2023-11-21T08:47:02;100822.00;;;25.06;56.15
63399;BME280;49533;-34.520;150.798;2023-11-21T08:49:32;100755.75;;;24.58;55.84
63399;BME280;49533;-34.520;150.798;2023-11-21T08:51:59;100762.09;;;24.51;55.67
63399;BME280;49533;-34.520;150.798;2023-11-21T08:54:26;100825.97;;;25.05;55.80
63399;BME280;49533;-34.520;150.798;2023-11-21T08:56:54;100833.50;;;25.05;55.82
63399;BME280;49533;-34.520;150.798;2023-11-21T08:59:21;100827.97;;;24.94;56.02
63399;BME280;49533;-34.520;150.798;2023-11-21T09:01:48;100837.50;;;25.04;56.10
63399;BME280;49533;-34.520;150.798;2023-11-21T09:04:16;100769.63;;;24.62;55.56
63399;BME280;49533;-34.520;150.798;2023-11-21T09:06:49;100841.09;;;25.01;55.97
63399;BME280;49533;-34.520;150.798;2023-11-21T09:09:16;100840.25;;;25.00;55.88
63399;BME280;49533;-34.520;150.798;2023-11-21T09:11:44;100833.91;;;25.00;55.91
63399;BME280;49533;-34.520;150.798;2023-11-21T09:14:12;100809.72;;;24.75;55.86
63399;BME280;49533;-34.520;150.798;2023-11-21T09:16:41;100804.56;;;24.66;55.82
63399;BME280;49533;-34.520;150.798;2023-11-21T09:19:12;100797.81;;;24.67;55.30
63399;BME280;49533;-34.520;150.798;2023-11-21T09:21:42;100716.44;;;24.17;55.80
63399;BME280;49533;-34.520;150.798;2023-11-21T09:24:09;100834.31;;;24.87;55.31
63399;BME280;49533;-34.520;150.798;2023-11-21T09:26:36;100820.44;;;24.73;55.20
63399;BME280;49533;-34.520;150.798;2023-11-21T09:29:13;100862.53;;;24.93;55.72
63399;BME280;49533;-34.520;150.798;2023-11-21T09:31:53;100813.69;;;24.60;55.56
63399;BME280;49533;-34.520;150.798;2023-11-21T09:34:21;100787.84;;;24.34;55.49
63399;BME280;49533;-34.520;150.798;2023-11-21T09:36:49;100866.91;;;24.90;55.20
63399;BME280;49533;-34.520;150.798;2023-11-21T09:39:16;100780.69;;;24.33;55.71
63399;BME280;49533;-34.520;150.798;2023-11-21T09:41:50;100816.06;;;24.50;55.22
63399;BME280;49533;-34.520;150.798;2023-11-21T09:44:21;100870.84;;;24.86;55.40
63399;BME280;49533;-34.520;150.798;2023-11-21T09:46:56;100837.50;;;24.57;55.80
63399;BME280;49533;-34.520;150.798;2023-11-21T09:49:29;100864.09;;;24.72;55.26
63399;BME280;49533;-34.520;150.798;2023-11-21T09:52:01;100814.03;;;24.29;55.40
63399;BME280;49533;-34.520;150.798;2023-11-21T09:54:32;100841.81;;;24.40;55.43
63399;BME280;49533;-34.520;150.798;2023-11-21T09:57:04;100862.88;;;24.45;55.60
63399;BME280;49533;-34.520;150.798;2023-11-21T09:59:52;100903.81;;;24.80;55.58
63399;BME280;49533;-34.520;150.798;2023-11-21T10:02:34;100819.94;;;24.17;55.88
63399;BME280;49533;-34.520;150.798;2023-11-21T10:05:09;100882.72;;;24.61;55.65
63399;BME280;49533;-34.520;150.798;2023-11-21T10:07:45;100907.34;;;24.77;55.84
63399;BME280;49533;-34.520;150.798;2023-11-21T10:10:14;100825.47;;;24.21;55.42
63399;BME280;49533;-34.520;150.798;2023-11-21T10:12:50;100815.56;;;24.09;55.33
63399;BME280;49533;-34.520;150.798;2023-11-21T10:15:22;100852.84;;;24.15;55.33
63399;BME280;49533;-34.520;150.798;2023-11-21T10:17:52;100871.50;;;24.25;55.69
63399;BME280;49533;-34.520;150.798;2023-11-21T10:20:20;100920.81;;;24.54;55.60
63399;BME280;49533;-34.520;150.798;2023-11-21T10:22:48;100950.22;;;24.69;55.45
63399;BME280;49533;-34.520;150.798;2023-11-21T10:25:15;100862.34;;;24.03;55.52
63399;BME280;49533;-34.520;150.798;2023-11-21T10:27:48;100900.81;;;24.16;55.85
63399;BME280;49533;-34.520;150.798;2023-11-21T10:30:18;100865.88;;;23.97;55.44
63399;BME280;49533;-34.520;150.798;2023-11-21T10:32:45;100853.91;;;23.82;55.69
63399;BME280;49533;-34.520;150.798;2023-11-21T10:35:12;100944.63;;;24.51;55.90
63399;BME280;49533;-34.520;150.798;2023-11-21T10:37:40;100894.88;;;24.17;55.53
63399;BME280;49533;-34.520;150.798;2023-11-21T10:40:08;100932.22;;;24.30;55.84
63399;BME280;49533;-34.520;150.798;2023-11-21T10:42:42;100893.25;;;24.05;55.55
63399;BME280;49533;-34.520;150.798;2023-11-21T10:45:10;100916.69;;;24.12;55.94
63399;BME280;49533;-34.520;150.798;2023-11-21T10:47:44;100929.41;;;24.16;55.78
63399;BME280;49533;-34.520;150.798;2023-11-21T10:50:11;100900.69;;;23.87;55.84
63399;BME280;49533;-34.520;150.798;2023-11-21T10:52:40;100976.38;;;24.50;55.79
63399;BME280;49533;-34.520;150.798;2023-11-21T10:55:19;100976.38;;;24.50;55.78
63399;BME280;49533;-34.520;150.798;2023-11-21T10:57:49;100929.38;;;24.13;55.78
63399;BME280;49533;-34.520;150.798;2023-11-21T11:00:19;100984.28;;;24.48;55.80
63399;BME280;49533;-34.520;150.798;2023-11-21T11:02:52;100790.50;;;23.11;55.60
63399;BME280;49533;-34.520;150.798;2023-11-21T11:05:24;100987.84;;;24.48;55.70
63399;BME280;49533;-34.520;150.798;2023-11-21T11:07:58;100989.84;;;24.48;55.51
63399;BME280;49533;-34.520;150.798;2023-11-21T11:10:28;100937.69;;;24.09;55.75
63399;BME280;49533;-34.520;150.798;2023-11-21T11:12:56;100943.25;;;24.13;55.51
63399;BME280;49533;-34.520;150.798;2023-11-21T11:15:25;100984.25;;;24.44;55.67
63399;BME280;49533;-34.520;150.798;2023-11-21T11:17:53;100990.56;;;24.41;55.50
63399;BME280;49533;-34.520;150.798;2023-11-21T11:20:27;100981.81;;;24.32;55.77
63399;BME280;49533;-34.520;150.798;2023-11-21T11:28:40;100922.19;;;24.04;55.78
63399;BME280;49533;-34.520;150.798;2023-11-21T11:36:49;100959.19;;;24.26;55.71
63399;BME280;49533;-34.520;150.798;2023-11-21T11:39:28;100945.31;;;24.26;56.08
63399;BME280;49533;-34.520;150.798;2023-11-21T11:42:01;100890.47;;;23.98;56.18
63399;BME280;49533;-34.520;150.798;2023-11-21T11:47:35;100916.31;;;24.20;55.87
63399;BME280;49533;-34.520;150.798;2023-11-21T11:52:40;100913.91;;;24.15;55.79
63399;BME280;49533;-34.520;150.798;2023-11-21T11:55:09;100912.34;;;24.14;56.08
63399;BME280;49533;-34.520;150.798;2023-11-21T11:57:37;100919.88;;;24.14;55.88
63399;BME280;49533;-34.520;150.798;2023-11-21T12:02:58;100864.94;;;23.71;56.02
63399;BME280;49533;-34.520;150.798;2023-11-21T12:05:29;100925.81;;;24.12;55.85
63399;BME280;49533;-34.520;150.798;2023-11-21T12:08:03;100926.19;;;24.11;55.78
63399;BME280;49533;-34.520;150.798;2023-11-21T12:10:33;100930.94;;;24.10;55.76
63399;BME280;49533;-34.520;150.798;2023-11-21T12:13:11;100892.38;;;23.83;55.96
63399;BME280;49533;-34.520;150.798;2023-11-21T12:15:41;100852.94;;;23.56;55.70
63399;BME280;49533;-34.520;150.798;2023-11-21T12:18:08;100883.25;;;23.86;55.88
63399;BME280;49533;-34.520;150.798;2023-11-21T12:20:36;100856.19;;;23.69;55.96
63399;BME280;49533;-34.520;150.798;2023-11-21T12:23:07;100831.59;;;23.64;56.01
63399;BME280;49533;-34.520;150.798;2023-11-21T12:25:37;100901.56;;;24.02;55.86
63399;BME280;49533;-34.520;150.798;2023-11-21T12:28:06;100830.72;;;23.46;55.81
63399;BME280;49533;-34.520;150.798;2023-11-21T12:30:34;100850.59;;;23.55;55.84
63399;BME280;49533;-34.520;150.798;2023-11-21T12:33:02;100913.41;;;23.95;55.93
63399;BME280;49533;-34.520;150.798;2023-11-21T12:35:35;100793.19;;;23.00;56.08
63399;BME280;49533;-34.520;150.798;2023-11-21T12:38:03;100772.44;;;22.79;56.36
63399;BME280;49533;-34.520;150.798;2023-11-21T12:40:31;100807.59;;;23.23;55.92
63399;BME280;49533;-34.520;150.798;2023-11-21T12:43:00;100922.53;;;23.89;56.13
63399;BME280;49533;-34.520;150.798;2023-11-21T12:45:28;100856.09;;;23.48;55.85
63399;BME280;49533;-34.520;150.798;2023-11-21T12:48:01;100919.34;;;23.86;56.25
63399;BME280;49533;-34.520;150.798;2023-11-21T12:50:34;100909.69;;;23.66;56.22
63399;BME280;49533;-34.520;150.798;2023-11-21T12:53:10;100904.22;;;23.73;56.09
63399;BME280;49533;-34.520;150.798;2023-11-21T12:55:44;100859.22;;;23.42;56.20
63399;BME280;49533;-34.520;150.798;2023-11-21T12:58:16;100881.53;;;23.64;56.09
63399;BME280;49533;-34.520;150.798;2023-11-21T13:00:45;100905.00;;;23.77;56.22
63399;BME280;49533;-34.520;150.798;2023-11-21T13:03:14;100860.44;;;23.49;56.24
63399;BME280;49533;-34.520;150.798;2023-11-21T13:05:52;100854.47;;;23.43;56.14
63399;BME280;49533;-34.520;150.798;2023-11-21T13:08:25;100898.25;;;23.75;56.25
63399;BME280;49533;-34.520;150.798;2023-11-21T13:10:55;100897.47;;;23.74;56.06
63399;BME280;49533;-34.520;150.798;2023-11-21T13:13:23;100896.69;;;23.74;55.91
63399;BME280;49533;-34.520;150.798;2023-11-21T13:15:55;100900.25;;;23.74;56.06
63399;BME280;49533;-34.520;150.798;2023-11-21T13:18:26;100898.66;;;23.73;56.04
63399;BME280;49533;-34.520;150.798;2023-11-21T13:20:57;100882.72;;;23.63;56.00
63399;BME280;49533;-34.520;150.798;2023-11-21T13:23:25;100894.63;;;23.67;55.97
63399;BME280;49533;-34.520;150.798;2023-11-21T13:25:53;100896.63;;;23.70;56.15
63399;BME280;49533;-34.520;150.798;2023-11-21T13:28:21;100850.47;;;23.37;55.88
63399;BME280;49533;-34.520;150.798;2023-11-21T13:30:50;100844.06;;;23.26;56.15
63399;BME280;49533;-34.520;150.798;2023-11-21T13:33:19;100866.75;;;23.42;56.04
63399;BME280;49533;-34.520;150.798;2023-11-21T13:35:52;100913.28;;;23.70;56.14